sensor_id;sensor_type;location;lat;lon;timestamp;temperature;humidity
2054;DHT22;1032;52.542;13.440;2023-03-23T00:00:50;13.80;96.80
2054;DHT22;1032;52.542;13.440;2023-03-23T00:05:46;13.90;96.90
2054;DHT22;1032;52.542;13.440;2023-03-23T00:08:16;13.80;97.20
2054;DHT22;1032;52.542;13.440;2023-03-23T00:10:42;13.80;97.30
2054;DHT22;1032;52.542;13.440;2023-03-23T00:13:09;13.70;97.10
2054;DHT22;1032;52.542;13.440;2023-03-23T00:15:36;13.70;97.40
2054;DHT22;1032;52.542;13.440;2023-03-23T00:18:08;13.50;97.40
2054;DHT22;1032;52.542;13.440;2023-03-23T00:23:15;13.60;97.40
2054;DHT22;1032;52.542;13.440;2023-03-23T00:25:45;13.60;97.20
2054;DHT22;1032;52.542;13.440;2023-03-23T00:30:40;13.60;97.30
2054;DHT22;1032;52.542;13.440;2023-03-23T00:33:09;13.70;97.50
2054;DHT22;1032;52.542;13.440;2023-03-23T00:40:34;13.60;97.50
2054;DHT22;1032;52.542;13.440;2023-03-23T00:45:29;13.50;97.60
2054;DHT22;1032;52.542;13.440;2023-03-23T00:47:55;13.50;97.70
2054;DHT22;1032;52.542;13.440;2023-03-23T00:55:25;13.40;98.00
2054;DHT22;1032;52.542;13.440;2023-03-23T00:57:52;13.40;98.00
2054;DHT22;1032;52.542;13.440;2023-03-23T01:00:19;13.40;98.10
2054;DHT22;1032;52.542;13.440;2023-03-23T01:05:13;13.30;98.20
2054;DHT22;1032;52.542;13.440;2023-03-23T01:07:42;13.30;98.20
2054;DHT22;1032;52.542;13.440;2023-03-23T01:10:10;13.20;98.40
2054;DHT22;1032;52.542;13.440;2023-03-23T01:12:38;13.20;98.40
2054;DHT22;1032;52.542;13.440;2023-03-23T01:17:32;13.20;98.40
2054;DHT22;1032;52.542;13.440;2023-03-23T01:22:25;13.10;98.50
2054;DHT22;1032;52.542;13.440;2023-03-23T01:24:53;13.30;98.60
2054;DHT22;1032;52.542;13.440;2023-03-23T01:27:20;13.10;98.60
2054;DHT22;1032;52.542;13.440;2023-03-23T01:29:46;13.10;98.70
2054;DHT22;1032;52.542;13.440;2023-03-23T01:34:40;13.00;98.90
2054;DHT22;1032;52.542;13.440;2023-03-23T01:42:04;13.10;99.10
2054;DHT22;1032;52.542;13.440;2023-03-23T01:47:54;13.10;99.00
2054;DHT22;1032;52.542;13.440;2023-03-23T01:55:21;13.00;99.10
2054;DHT22;1032;52.542;13.440;2023-03-23T02:10:17;13.00;99.40
2054;DHT22;1032;52.542;13.440;2023-03-23T02:15:13;13.30;99.50
2054;DHT22;1032;52.542;13.440;2023-03-23T02:17:45;13.10;99.30
2054;DHT22;1032;52.542;13.440;2023-03-23T02:31:10;13.30;99.50
2054;DHT22;1032;52.542;13.440;2023-03-23T02:33:45;13.20;99.50
2054;DHT22;1032;52.542;13.440;2023-03-23T02:36:20;13.30;99.50
2054;DHT22;1032;52.542;13.440;2023-03-23T02:41:22;13.40;99.50
2054;DHT22;1032;52.542;13.440;2023-03-23T02:46:18;13.20;99.20
2054;DHT22;1032;52.542;13.440;2023-03-23T02:51:18;13.30;99.40
2054;DHT22;1032;52.542;13.440;2023-03-23T02:58:42;13.20;99.90
2054;DHT22;1032;52.542;13.440;2023-03-23T03:06:37;13.30;99.90
2054;DHT22;1032;52.542;13.440;2023-03-23T03:09:14;13.00;99.90
2054;DHT22;1032;52.542;13.440;2023-03-23T03:14:19;13.30;99.90
2054;DHT22;1032;52.542;13.440;2023-03-23T03:16:53;13.40;99.90
2054;DHT22;1032;52.542;13.440;2023-03-23T03:19:24;13.60;99.90
2054;DHT22;1032;52.542;13.440;2023-03-23T03:21:54;13.20;99.90
2054;DHT22;1032;52.542;13.440;2023-03-23T03:24:32;13.20;99.90
2054;DHT22;1032;52.542;13.440;2023-03-23T03:27:00;13.20;99.90
2054;DHT22;1032;52.542;13.440;2023-03-23T03:29:47;13.30;99.90
2054;DHT22;1032;52.542;13.440;2023-03-23T03:32:19;13.40;99.90
2054;DHT22;1032;52.542;13.440;2023-03-23T03:34:50;13.30;99.90
2054;DHT22;1032;52.542;13.440;2023-03-23T03:39:46;13.40;99.90
2054;DHT22;1032;52.542;13.440;2023-03-23T03:42:13;13.20;99.90
2054;DHT22;1032;52.542;13.440;2023-03-23T03:44:40;13.30;99.90
2054;DHT22;1032;52.542;13.440;2023-03-23T03:47:07;13.50;99.90
2054;DHT22;1032;52.542;13.440;2023-03-23T03:49:33;13.50;99.90
2054;DHT22;1032;52.542;13.440;2023-03-23T03:52:01;13.40;99.90
2054;DHT22;1032;52.542;13.440;2023-03-23T03:54:39;13.20;99.90
2054;DHT22;1032;52.542;13.440;2023-03-23T03:57:06;13.30;99.90
2054;DHT22;1032;52.542;13.440;2023-03-23T03:59:52;13.20;99.90
2054;DHT22;1032;52.542;13.440;2023-03-23T04:02:37;13.40;99.90
2054;DHT22;1032;52.542;13.440;2023-03-23T04:05:04;13.10;99.90
2054;DHT22;1032;52.542;13.440;2023-03-23T04:07:33;13.40;99.90
2054;DHT22;1032;52.542;13.440;2023-03-23T04:10:04;13.30;99.90
2054;DHT22;1032;52.542;13.440;2023-03-23T04:15:29;13.50;99.90
2054;DHT22;1032;52.542;13.440;2023-03-23T04:17:56;13.40;99.90
2054;DHT22;1032;52.542;13.440;2023-03-23T04:20:24;13.40;99.90
2054;DHT22;1032;52.542;13.440;2023-03-23T04:22:54;13.30;99.90
2054;DHT22;1032;52.542;13.440;2023-03-23T04:25:23;13.40;99.90
2054;DHT22;1032;52.542;13.440;2023-03-23T04:27:52;13.30;99.90
2054;DHT22;1032;52.542;13.440;2023-03-23T04:30:24;13.60;99.90
2054;DHT22;1032;52.542;13.440;2023-03-23T04:33:06;13.20;99.90
2054;DHT22;1032;52.542;13.440;2023-03-23T04:35:34;13.30;99.90
2054;DHT22;1032;52.542;13.440;2023-03-23T04:38:14;13.10;99.90
2054;DHT22;1032;52.542;13.440;2023-03-23T04:40:43;13.30;99.90
2054;DHT22;1032;52.542;13.440;2023-03-23T04:43:26;13.40;99.90
2054;DHT22;1032;52.542;13.440;2023-03-23T04:46:05;13.40;99.90
2054;DHT22;1032;52.542;13.440;2023-03-23T04:48:34;13.40;99.90
2054;DHT22;1032;52.542;13.440;2023-03-23T04:51:09;13.50;99.90
2054;DHT22;1032;52.542;13.440;2023-03-23T04:53:39;13.40;99.90
2054;DHT22;1032;52.542;13.440;2023-03-23T04:56:06;13.10;99.90
2054;DHT22;1032;52.542;13.440;2023-03-23T04:58:39;13.30;99.90
2054;DHT22;1032;52.542;13.440;2023-03-23T05:04:12;13.30;99.90
2054;DHT22;1032;52.542;13.440;2023-03-23T05:06:45;13.40;99.90
2054;DHT22;1032;52.542;13.440;2023-03-23T05:09:24;13.40;99.90
2054;DHT22;1032;52.542;13.440;2023-03-23T05:11:51;13.30;99.90
2054;DHT22;1032;52.542;13.440;2023-03-23T05:14:17;12.80;99.90
2054;DHT22;1032;52.542;13.440;2023-03-23T05:16:52;13.50;99.90
2054;DHT22;1032;52.542;13.440;2023-03-23T05:19:19;13.00;99.90
2054;DHT22;1032;52.542;13.440;2023-03-23T05:24:14;13.10;99.90
2054;DHT22;1032;52.542;13.440;2023-03-23T05:26:42;12.70;99.90
2054;DHT22;1032;52.542;13.440;2023-03-23T05:29:17;13.10;99.90
2054;DHT22;1032;52.542;13.440;2023-03-23T05:31:53;13.20;99.90
2054;DHT22;1032;52.542;13.440;2023-03-23T05:34:21;13.10;99.90
2054;DHT22;1032;52.542;13.440;2023-03-23T05:36:53;13.20;99.90
2054;DHT22;1032;52.542;13.440;2023-03-23T05:39:27;13.20;99.90
2054;DHT22;1032;52.542;13.440;2023-03-23T05:42:08;13.10;99.90
2054;DHT22;1032;52.542;13.440;2023-03-23T05:44:44;13.20;99.90
2054;DHT22;1032;52.542;13.440;2023-03-23T05:47:11;12.90;99.90
2054;DHT22;1032;52.542;13.440;2023-03-23T05:49:42;13.20;99.90
2054;DHT22;1032;52.542;13.440;2023-03-23T05:52:12;13.00;99.90
2054;DHT22;1032;52.542;13.440;2023-03-23T05:54:39;13.10;99.90
2054;DHT22;1032;52.542;13.440;2023-03-23T05:57:08;13.30;99.90
2054;DHT22;1032;52.542;13.440;2023-03-23T05:59:43;13.10;99.90
2054;DHT22;1032;52.542;13.440;2023-03-23T06:02:16;13.10;99.90
2054;DHT22;1032;52.542;13.440;2023-03-23T06:04:43;13.20;99.90
2054;DHT22;1032;52.542;13.440;2023-03-23T06:07:21;13.00;99.90
2054;DHT22;1032;52.542;13.440;2023-03-23T06:09:57;13.10;99.90
2054;DHT22;1032;52.542;13.440;2023-03-23T06:12:24;13.00;99.90
2054;DHT22;1032;52.542;13.440;2023-03-23T06:15:04;13.20;99.90
2054;DHT22;1032;52.542;13.440;2023-03-23T06:18:04;13.10;99.90
2054;DHT22;1032;52.542;13.440;2023-03-23T06:20:40;13.10;99.90
2054;DHT22;1032;52.542;13.440;2023-03-23T06:23:21;13.00;99.90
2054;DHT22;1032;52.542;13.440;2023-03-23T06:25:48;13.10;99.90
2054;DHT22;1032;52.542;13.440;2023-03-23T06:28:16;13.10;99.90
2054;DHT22;1032;52.542;13.440;2023-03-23T06:33:13;12.90;99.90
2054;DHT22;1032;52.542;13.440;2023-03-23T06:36:10;12.70;99.90
2054;DHT22;1032;52.542;13.440;2023-03-23T06:38:48;13.10;99.90
2054;DHT22;1032;52.542;13.440;2023-03-23T06:41:19;12.90;99.90
2054;DHT22;1032;52.542;13.440;2023-03-23T06:46:18;13.10;99.90
2054;DHT22;1032;52.542;13.440;2023-03-23T06:48:55;13.20;99.90
2054;DHT22;1032;52.542;13.440;2023-03-23T06:51:30;13.00;99.90
2054;DHT22;1032;52.542;13.440;2023-03-23T06:53:57;13.10;99.90
2054;DHT22;1032;52.542;13.440;2023-03-23T06:56:26;13.00;99.90
2054;DHT22;1032;52.542;13.440;2023-03-23T06:58:54;13.10;99.90
2054;DHT22;1032;52.542;13.440;2023-03-23T07:01:23;13.00;99.90
2054;DHT22;1032;52.542;13.440;2023-03-23T07:03:55;13.10;99.90
2054;DHT22;1032;52.542;13.440;2023-03-23T07:06:34;13.30;99.90
2054;DHT22;1032;52.542;13.440;2023-03-23T07:09:01;13.00;99.90
2054;DHT22;1032;52.542;13.440;2023-03-23T07:11:29;12.90;99.90
2054;DHT22;1032;52.542;13.440;2023-03-23T07:14:01;13.30;99.90
2054;DHT22;1032;52.542;13.440;2023-03-23T07:16:28;13.40;99.90
2054;DHT22;1032;52.542;13.440;2023-03-23T07:18:54;13.00;99.90
2054;DHT22;1032;52.542;13.440;2023-03-23T07:21:21;12.60;99.90
2054;DHT22;1032;52.542;13.440;2023-03-23T07:23:48;13.20;99.90
2054;DHT22;1032;52.542;13.440;2023-03-23T07:26:23;13.00;99.90
2054;DHT22;1032;52.542;13.440;2023-03-23T07:28:53;13.30;99.90
2054;DHT22;1032;52.542;13.440;2023-03-23T07:31:31;12.80;99.90
2054;DHT22;1032;52.542;13.440;2023-03-23T07:33:58;13.10;99.90
2054;DHT22;1032;52.542;13.440;2023-03-23T07:36:34;13.20;99.90
2054;DHT22;1032;52.542;13.440;2023-03-23T07:39:04;12.80;99.90
2054;DHT22;1032;52.542;13.440;2023-03-23T07:41:32;13.20;99.90
2054;DHT22;1032;52.542;13.440;2023-03-23T07:44:03;13.10;99.90
2054;DHT22;1032;52.542;13.440;2023-03-23T07:46:35;13.60;99.90
2054;DHT22;1032;52.542;13.440;2023-03-23T07:49:11;13.30;99.90
2054;DHT22;1032;52.542;13.440;2023-03-23T07:51:44;13.20;99.90
2054;DHT22;1032;52.542;13.440;2023-03-23T07:54:12;13.20;99.90
2054;DHT22;1032;52.542;13.440;2023-03-23T07:56:52;13.70;99.90
2054;DHT22;1032;52.542;13.440;2023-03-23T07:59:22;13.40;99.90
2054;DHT22;1032;52.542;13.440;2023-03-23T08:01:51;13.30;99.90
2054;DHT22;1032;52.542;13.440;2023-03-23T08:04:47;13.80;99.90
2054;DHT22;1032;52.542;13.440;2023-03-23T08:07:29;13.90;99.90
2054;DHT22;1032;52.542;13.440;2023-03-23T08:10:06;13.60;99.90
2054;DHT22;1032;52.542;13.440;2023-03-23T08:12:51;13.80;99.90
2054;DHT22;1032;52.542;13.440;2023-03-23T08:15:28;13.70;99.90
2054;DHT22;1032;52.542;13.440;2023-03-23T08:17:58;13.70;99.90
2054;DHT22;1032;52.542;13.440;2023-03-23T08:20:45;13.60;99.90
2054;DHT22;1032;52.542;13.440;2023-03-23T08:23:29;13.80;99.90
2054;DHT22;1032;52.542;13.440;2023-03-23T08:26:18;13.70;99.90
2054;DHT22;1032;52.542;13.440;2023-03-23T08:29:03;13.60;99.90
2054;DHT22;1032;52.542;13.440;2023-03-23T08:31:50;13.60;99.90
2054;DHT22;1032;52.542;13.440;2023-03-23T08:34:43;14.10;99.90
2054;DHT22;1032;52.542;13.440;2023-03-23T08:37:26;13.90;99.90
2054;DHT22;1032;52.542;13.440;2023-03-23T08:40:20;13.80;99.90
2054;DHT22;1032;52.542;13.440;2023-03-23T08:43:00;13.90;99.90
2054;DHT22;1032;52.542;13.440;2023-03-23T08:45:45;13.50;99.90
2054;DHT22;1032;52.542;13.440;2023-03-23T08:48:28;13.70;99.90
2054;DHT22;1032;52.542;13.440;2023-03-23T08:51:34;13.80;99.90
2054;DHT22;1032;52.542;13.440;2023-03-23T08:54:11;14.10;99.90
2054;DHT22;1032;52.542;13.440;2023-03-23T08:57:03;13.80;99.90
2054;DHT22;1032;52.542;13.440;2023-03-23T08:59:43;14.30;99.90
2054;DHT22;1032;52.542;13.440;2023-03-23T09:02:23;13.70;99.90
2054;DHT22;1032;52.542;13.440;2023-03-23T09:05:04;13.90;99.90
2054;DHT22;1032;52.542;13.440;2023-03-23T09:07:45;14.20;99.90
2054;DHT22;1032;52.542;13.440;2023-03-23T09:10:13;14.20;99.90
2054;DHT22;1032;52.542;13.440;2023-03-23T09:12:40;14.50;99.90
2054;DHT22;1032;52.542;13.440;2023-03-23T09:15:09;14.60;99.90
2054;DHT22;1032;52.542;13.440;2023-03-23T09:17:38;14.50;99.90
2054;DHT22;1032;52.542;13.440;2023-03-23T09:20:07;14.40;99.90
2054;DHT22;1032;52.542;13.440;2023-03-23T09:22:37;14.30;99.90
2054;DHT22;1032;52.542;13.440;2023-03-23T09:25:07;14.20;99.90
2054;DHT22;1032;52.542;13.440;2023-03-23T09:27:35;14.50;99.90
2054;DHT22;1032;52.542;13.440;2023-03-23T09:30:05;14.20;99.90
2054;DHT22;1032;52.542;13.440;2023-03-23T09:32:33;14.30;99.90
2054;DHT22;1032;52.542;13.440;2023-03-23T09:35:00;14.50;99.90
2054;DHT22;1032;52.542;13.440;2023-03-23T09:37:27;14.80;99.90
2054;DHT22;1032;52.542;13.440;2023-03-23T09:39:54;14.80;99.90
2054;DHT22;1032;52.542;13.440;2023-03-23T09:42:35;15.00;99.90
2054;DHT22;1032;52.542;13.440;2023-03-23T09:45:11;14.70;99.90
2054;DHT22;1032;52.542;13.440;2023-03-23T09:47:45;15.10;99.90
2054;DHT22;1032;52.542;13.440;2023-03-23T09:50:16;14.90;99.90
2054;DHT22;1032;52.542;13.440;2023-03-23T09:52:46;15.10;99.90
2054;DHT22;1032;52.542;13.440;2023-03-23T09:55:16;15.10;99.90
2054;DHT22;1032;52.542;13.440;2023-03-23T09:57:49;15.10;99.90
2054;DHT22;1032;52.542;13.440;2023-03-23T10:00:22;15.20;99.90
2054;DHT22;1032;52.542;13.440;2023-03-23T10:02:56;15.40;99.90
2054;DHT22;1032;52.542;13.440;2023-03-23T10:05:30;15.40;99.90
2054;DHT22;1032;52.542;13.440;2023-03-23T10:07:59;14.90;99.90
2054;DHT22;1032;52.542;13.440;2023-03-23T10:13:23;15.70;99.90
2054;DHT22;1032;52.542;13.440;2023-03-23T10:15:52;15.80;99.90
2054;DHT22;1032;52.542;13.440;2023-03-23T10:18:25;15.70;99.90
2054;DHT22;1032;52.542;13.440;2023-03-23T10:20:55;15.90;99.90
2054;DHT22;1032;52.542;13.440;2023-03-23T10:23:51;15.60;99.90
2054;DHT22;1032;52.542;13.440;2023-03-23T10:26:28;15.80;99.90
2054;DHT22;1032;52.542;13.440;2023-03-23T10:29:01;15.70;99.90
2054;DHT22;1032;52.542;13.440;2023-03-23T10:31:37;16.20;99.90
2054;DHT22;1032;52.542;13.440;2023-03-23T10:34:10;16.00;99.90
2054;DHT22;1032;52.542;13.440;2023-03-23T10:36:48;16.00;99.90
2054;DHT22;1032;52.542;13.440;2023-03-23T10:39:19;15.90;99.90
2054;DHT22;1032;52.542;13.440;2023-03-23T10:41:47;16.20;99.90
2054;DHT22;1032;52.542;13.440;2023-03-23T10:44:18;16.30;99.90
2054;DHT22;1032;52.542;13.440;2023-03-23T10:46:47;16.10;99.90
2054;DHT22;1032;52.542;13.440;2023-03-23T10:49:22;16.40;99.90
2054;DHT22;1032;52.542;13.440;2023-03-23T10:51:56;16.30;99.90
2054;DHT22;1032;52.542;13.440;2023-03-23T10:54:27;16.80;99.90
2054;DHT22;1032;52.542;13.440;2023-03-23T10:56:54;16.70;99.90
2054;DHT22;1032;52.542;13.440;2023-03-23T10:59:28;16.10;99.90
2054;DHT22;1032;52.542;13.440;2023-03-23T11:01:58;16.40;99.90
2054;DHT22;1032;52.542;13.440;2023-03-23T11:04:25;16.60;99.90
2054;DHT22;1032;52.542;13.440;2023-03-23T11:06:58;16.60;99.90
2054;DHT22;1032;52.542;13.440;2023-03-23T11:09:35;16.70;99.90
2054;DHT22;1032;52.542;13.440;2023-03-23T11:12:02;16.50;99.90
2054;DHT22;1032;52.542;13.440;2023-03-23T11:14:32;16.70;99.90
2054;DHT22;1032;52.542;13.440;2023-03-23T11:17:01;16.70;99.90
2054;DHT22;1032;52.542;13.440;2023-03-23T11:19:30;16.50;99.90
2054;DHT22;1032;52.542;13.440;2023-03-23T11:22:06;16.70;99.90
2054;DHT22;1032;52.542;13.440;2023-03-23T11:24:36;16.30;99.90
2054;DHT22;1032;52.542;13.440;2023-03-23T11:27:04;16.60;99.90
2054;DHT22;1032;52.542;13.440;2023-03-23T11:29:36;16.50;99.90
2054;DHT22;1032;52.542;13.440;2023-03-23T11:32:11;16.20;99.90
2054;DHT22;1032;52.542;13.440;2023-03-23T11:34:41;16.70;99.90
2054;DHT22;1032;52.542;13.440;2023-03-23T11:37:11;16.40;99.90
2054;DHT22;1032;52.542;13.440;2023-03-23T11:39:49;17.00;99.90
2054;DHT22;1032;52.542;13.440;2023-03-23T11:42:22;17.10;99.90
2054;DHT22;1032;52.542;13.440;2023-03-23T11:45:12;17.10;99.90
2054;DHT22;1032;52.542;13.440;2023-03-23T11:47:43;17.40;99.90
2054;DHT22;1032;52.542;13.440;2023-03-23T11:50:17;17.60;99.90
2054;DHT22;1032;52.542;13.440;2023-03-23T11:52:47;17.70;99.90
2054;DHT22;1032;52.542;13.440;2023-03-23T11:55:21;17.70;99.90
2054;DHT22;1032;52.542;13.440;2023-03-23T11:57:48;17.70;99.90
2054;DHT22;1032;52.542;13.440;2023-03-23T12:00:19;17.30;99.90
2054;DHT22;1032;52.542;13.440;2023-03-23T12:02:50;17.70;99.90
2054;DHT22;1032;52.542;13.440;2023-03-23T12:05:34;18.00;99.90
2054;DHT22;1032;52.542;13.440;2023-03-23T12:08:15;17.80;99.90
2054;DHT22;1032;52.542;13.440;2023-03-23T12:10:49;17.80;99.90
2054;DHT22;1032;52.542;13.440;2023-03-23T12:13:29;17.90;99.90
2054;DHT22;1032;52.542;13.440;2023-03-23T12:16:06;17.80;99.90
2054;DHT22;1032;52.542;13.440;2023-03-23T12:18:44;17.70;99.90
2054;DHT22;1032;52.542;13.440;2023-03-23T12:21:18;17.30;99.70
2054;DHT22;1032;52.542;13.440;2023-03-23T12:23:55;17.70;99.90
2054;DHT22;1032;52.542;13.440;2023-03-23T12:26:25;17.80;99.90
2054;DHT22;1032;52.542;13.440;2023-03-23T12:31:56;17.60;99.80
2054;DHT22;1032;52.542;13.440;2023-03-23T12:34:33;17.70;99.80
2054;DHT22;1032;52.542;13.440;2023-03-23T12:37:14;17.20;99.40
2054;DHT22;1032;52.542;13.440;2023-03-23T12:42:55;17.60;99.50
2054;DHT22;1032;52.542;13.440;2023-03-23T12:45:45;17.60;99.50
2054;DHT22;1032;52.542;13.440;2023-03-23T12:48:15;17.70;99.40
2054;DHT22;1032;52.542;13.440;2023-03-23T12:50:48;17.60;99.40
2054;DHT22;1032;52.542;13.440;2023-03-23T12:53:19;17.80;99.30
2054;DHT22;1032;52.542;13.440;2023-03-23T12:55:51;17.70;99.00
2054;DHT22;1032;52.542;13.440;2023-03-23T12:58:21;17.70;99.00
2054;DHT22;1032;52.542;13.440;2023-03-23T13:00:54;17.40;98.60
2054;DHT22;1032;52.542;13.440;2023-03-23T13:03:27;17.60;98.50
2054;DHT22;1032;52.542;13.440;2023-03-23T13:06:03;17.90;98.60
2054;DHT22;1032;52.542;13.440;2023-03-23T13:08:34;17.80;98.30
2054;DHT22;1032;52.542;13.440;2023-03-23T13:11:04;17.80;98.10
2054;DHT22;1032;52.542;13.440;2023-03-23T13:13:44;18.00;98.10
2054;DHT22;1032;52.542;13.440;2023-03-23T13:16:18;18.00;98.00
2054;DHT22;1032;52.542;13.440;2023-03-23T13:18:55;18.00;98.10
2054;DHT22;1032;52.542;13.440;2023-03-23T13:21:26;17.60;97.80
2054;DHT22;1032;52.542;13.440;2023-03-23T13:23:58;17.60;98.00
2054;DHT22;1032;52.542;13.440;2023-03-23T13:26:25;17.70;98.10
2054;DHT22;1032;52.542;13.440;2023-03-23T13:28:56;17.40;98.10
2054;DHT22;1032;52.542;13.440;2023-03-23T13:31:26;17.50;98.10
2054;DHT22;1032;52.542;13.440;2023-03-23T13:34:02;17.60;98.10
2054;DHT22;1032;52.542;13.440;2023-03-23T13:36:31;17.50;98.00
2054;DHT22;1032;52.542;13.440;2023-03-23T13:39:01;17.60;98.10
2054;DHT22;1032;52.542;13.440;2023-03-23T13:41:30;17.60;98.00
2054;DHT22;1032;52.542;13.440;2023-03-23T13:44:16;17.20;97.60
2054;DHT22;1032;52.542;13.440;2023-03-23T13:46:54;17.80;97.50
2054;DHT22;1032;52.542;13.440;2023-03-23T13:49:22;17.80;96.10
2054;DHT22;1032;52.542;13.440;2023-03-23T13:52:02;17.70;96.30
2054;DHT22;1032;52.542;13.440;2023-03-23T13:54:40;17.80;96.10
2054;DHT22;1032;52.542;13.440;2023-03-23T13:57:24;17.50;96.20
2054;DHT22;1032;52.542;13.440;2023-03-23T13:59:56;17.20;95.80
2054;DHT22;1032;52.542;13.440;2023-03-23T14:02:36;17.80;96.20
2054;DHT22;1032;52.542;13.440;2023-03-23T14:05:31;17.70;95.80
2054;DHT22;1032;52.542;13.440;2023-03-23T14:08:00;17.40;95.60
2054;DHT22;1032;52.542;13.440;2023-03-23T14:10:34;17.80;96.00
2054;DHT22;1032;52.542;13.440;2023-03-23T14:13:03;17.60;95.60
2054;DHT22;1032;52.542;13.440;2023-03-23T14:15:37;17.70;94.30
2054;DHT22;1032;52.542;13.440;2023-03-23T14:18:06;17.90;94.40
2054;DHT22;1032;52.542;13.440;2023-03-23T14:20:36;18.00;94.40
2054;DHT22;1032;52.542;13.440;2023-03-23T14:23:05;17.80;94.30
2054;DHT22;1032;52.542;13.440;2023-03-23T14:25:32;17.50;94.20
2054;DHT22;1032;52.542;13.440;2023-03-23T14:27:59;17.80;94.50
2054;DHT22;1032;52.542;13.440;2023-03-23T14:30:27;17.80;94.50
2054;DHT22;1032;52.542;13.440;2023-03-23T14:33:03;17.80;94.30
2054;DHT22;1032;52.542;13.440;2023-03-23T14:35:32;17.60;94.00
2054;DHT22;1032;52.542;13.440;2023-03-23T14:38:01;18.00;94.10
2054;DHT22;1032;52.542;13.440;2023-03-23T14:40:29;18.10;94.10
2054;DHT22;1032;52.542;13.440;2023-03-23T14:42:57;17.80;94.30
2054;DHT22;1032;52.542;13.440;2023-03-23T14:45:26;18.10;94.10
2054;DHT22;1032;52.542;13.440;2023-03-23T14:47:54;18.10;93.80
2054;DHT22;1032;52.542;13.440;2023-03-23T14:50:26;18.00;93.60
2054;DHT22;1032;52.542;13.440;2023-03-23T14:52:57;18.00;93.70
2054;DHT22;1032;52.542;13.440;2023-03-23T14:55:25;17.90;93.60
2054;DHT22;1032;52.542;13.440;2023-03-23T14:57:54;17.90;93.50
2054;DHT22;1032;52.542;13.440;2023-03-23T15:00:22;17.80;93.50
2054;DHT22;1032;52.542;13.440;2023-03-23T15:02:51;17.90;93.70
2054;DHT22;1032;52.542;13.440;2023-03-23T15:05:21;17.90;93.70
2054;DHT22;1032;52.542;13.440;2023-03-23T15:07:51;17.90;93.80
2054;DHT22;1032;52.542;13.440;2023-03-23T15:10:20;17.80;93.80
2054;DHT22;1032;52.542;13.440;2023-03-23T15:12:49;17.80;94.00
2054;DHT22;1032;52.542;13.440;2023-03-23T15:15:21;17.60;94.00
2054;DHT22;1032;52.542;13.440;2023-03-23T15:17:48;17.60;94.00
2054;DHT22;1032;52.542;13.440;2023-03-23T15:20:22;17.60;94.20
2054;DHT22;1032;52.542;13.440;2023-03-23T15:22:49;17.80;94.40
2054;DHT22;1032;52.542;13.440;2023-03-23T15:25:19;17.90;94.60
2054;DHT22;1032;52.542;13.440;2023-03-23T15:27:51;17.70;94.70
2054;DHT22;1032;52.542;13.440;2023-03-23T15:30:32;17.40;94.50
2054;DHT22;1032;52.542;13.440;2023-03-23T15:33:03;17.50;94.60
2054;DHT22;1032;52.542;13.440;2023-03-23T15:35:34;17.40;94.70
2054;DHT22;1032;52.542;13.440;2023-03-23T15:38:03;17.30;94.70
2054;DHT22;1032;52.542;13.440;2023-03-23T15:40:34;17.20;94.70
2054;DHT22;1032;52.542;13.440;2023-03-23T15:43:15;17.40;94.80
2054;DHT22;1032;52.542;13.440;2023-03-23T15:45:55;17.30;94.70
2054;DHT22;1032;52.542;13.440;2023-03-23T15:48:26;17.00;94.60
2054;DHT22;1032;52.542;13.440;2023-03-23T15:50:53;17.40;94.80
2054;DHT22;1032;52.542;13.440;2023-03-23T15:53:27;17.00;94.60
2054;DHT22;1032;52.542;13.440;2023-03-23T15:55:54;17.10;94.40
2054;DHT22;1032;52.542;13.440;2023-03-23T15:58:23;17.00;94.50
2054;DHT22;1032;52.542;13.440;2023-03-23T16:00:50;17.30;94.50
2054;DHT22;1032;52.542;13.440;2023-03-23T16:03:21;17.20;94.10
2054;DHT22;1032;52.542;13.440;2023-03-23T16:05:50;17.10;93.90
2054;DHT22;1032;52.542;13.440;2023-03-23T16:08:16;16.90;93.50
2054;DHT22;1032;52.542;13.440;2023-03-23T16:10:43;17.40;93.40
2054;DHT22;1032;52.542;13.440;2023-03-23T16:13:10;17.10;93.10
2054;DHT22;1032;52.542;13.440;2023-03-23T16:15:38;17.30;93.20
2054;DHT22;1032;52.542;13.440;2023-03-23T16:18:05;17.30;93.10
2054;DHT22;1032;52.542;13.440;2023-03-23T16:20:31;16.80;92.90
2054;DHT22;1032;52.542;13.440;2023-03-23T16:22:58;17.20;93.10
2054;DHT22;1032;52.542;13.440;2023-03-23T16:25:25;17.20;93.00
2054;DHT22;1032;52.542;13.440;2023-03-23T16:27:52;17.30;93.00
2054;DHT22;1032;52.542;13.440;2023-03-23T16:30:21;17.20;93.00
2054;DHT22;1032;52.542;13.440;2023-03-23T16:32:49;17.10;92.90
2054;DHT22;1032;52.542;13.440;2023-03-23T16:35:16;16.80;92.70
2054;DHT22;1032;52.542;13.440;2023-03-23T16:37:44;17.20;92.90
2054;DHT22;1032;52.542;13.440;2023-03-23T16:40:12;17.00;92.80
2054;DHT22;1032;52.542;13.440;2023-03-23T16:42:39;17.10;92.80
2054;DHT22;1032;52.542;13.440;2023-03-23T16:45:06;17.00;92.70
2054;DHT22;1032;52.542;13.440;2023-03-23T16:47:34;17.00;92.70
2054;DHT22;1032;52.542;13.440;2023-03-23T16:50:02;17.20;93.10
2054;DHT22;1032;52.542;13.440;2023-03-23T16:52:31;16.90;94.30
2054;DHT22;1032;52.542;13.440;2023-03-23T16:54:57;16.80;95.10
2054;DHT22;1032;52.542;13.440;2023-03-23T16:57:25;16.50;95.60
2054;DHT22;1032;52.542;13.440;2023-03-23T16:59:53;16.30;96.00
2054;DHT22;1032;52.542;13.440;2023-03-23T17:02:22;16.20;96.40
2054;DHT22;1032;52.542;13.440;2023-03-23T17:04:49;15.90;96.50
2054;DHT22;1032;52.542;13.440;2023-03-23T17:07:17;16.40;97.00
2054;DHT22;1032;52.542;13.440;2023-03-23T17:09:44;16.10;97.20
2054;DHT22;1032;52.542;13.440;2023-03-23T17:12:11;16.40;97.70
2054;DHT22;1032;52.542;13.440;2023-03-23T17:14:38;15.90;97.80
2054;DHT22;1032;52.542;13.440;2023-03-23T17:17:04;16.00;98.00
2054;DHT22;1032;52.542;13.440;2023-03-23T17:19:31;15.90;98.30
2054;DHT22;1032;52.542;13.440;2023-03-23T17:21:58;15.60;98.30
2054;DHT22;1032;52.542;13.440;2023-03-23T17:24:27;15.90;98.70
2054;DHT22;1032;52.542;13.440;2023-03-23T17:26:53;15.90;99.10
2054;DHT22;1032;52.542;13.440;2023-03-23T17:29:20;15.80;99.10
2054;DHT22;1032;52.542;13.440;2023-03-23T17:31:48;15.20;99.10
2054;DHT22;1032;52.542;13.440;2023-03-23T17:34:15;15.50;99.30
2054;DHT22;1032;52.542;13.440;2023-03-23T17:36:42;15.60;99.70
2054;DHT22;1032;52.542;13.440;2023-03-23T17:39:08;15.70;99.90
2054;DHT22;1032;52.542;13.440;2023-03-23T17:41:36;15.60;99.90
2054;DHT22;1032;52.542;13.440;2023-03-23T17:44:03;15.70;99.90
2054;DHT22;1032;52.542;13.440;2023-03-23T17:46:30;15.40;99.90
2054;DHT22;1032;52.542;13.440;2023-03-23T17:48:56;15.60;99.90
2054;DHT22;1032;52.542;13.440;2023-03-23T17:51:23;15.50;99.90
2054;DHT22;1032;52.542;13.440;2023-03-23T17:53:50;15.50;99.90
2054;DHT22;1032;52.542;13.440;2023-03-23T17:56:16;15.30;99.90
2054;DHT22;1032;52.542;13.440;2023-03-23T17:58:44;14.80;99.90
2054;DHT22;1032;52.542;13.440;2023-03-23T18:01:11;14.80;99.90
2054;DHT22;1032;52.542;13.440;2023-03-23T18:03:37;15.10;99.90
2054;DHT22;1032;52.542;13.440;2023-03-23T18:06:06;15.20;99.90
2054;DHT22;1032;52.542;13.440;2023-03-23T18:08:34;15.10;99.90